Time;durP1;ratioP1;P1;durP2;ratioP2;P2;SDS_P1;SDS_P2;PMS_P1;PMS_P2;Temp;Humidity;BMP_temperature;BMP_pressure;BME280_temperature;BME280_humidity;BME280_pressure;Samples;Min_cycle;Max_cycle;Signal;HPM_P1;HPM_P2
2022/06/14 00:03:32;;;;;;;16.58;9.63;;;;;;;;;;9505476;30;20059;-61
2022/06/14 00:08:26;;;;;;;11.00;9.85;;;;;;;;;;9505448;30;20139;-61
2022/06/14 00:13:19;;;;;;;15.48;9.68;;;;;;;;;;9511441;30;20064;-61
2022/06/14 00:18:13;;;;;;;13.15;9.02;;;;;;;;;;9505592;30;20048;-61
2022/06/14 00:23:07;;;;;;;12.15;10.85;;;;;;;;;;9505053;30;20079;-62
2022/06/14 00:28:01;;;;;;;11.00;10.20;;;;;;;;;;9504656;30;20127;-61
2022/06/14 00:32:55;;;;;;;12.30;11.10;;;;;;;;;;9489270;30;20056;-61
2022/06/14 00:37:48;;;;;;;11.45;10.32;;;;;;;;;;9504654;30;20068;-61
2022/06/14 00:42:42;;;;;;;14.18;11.95;;;;;;;;;;9511400;30;20264;-62
2022/06/14 00:47:43;;;;;;;12.77;11.48;;;;;;;;;;9511789;30;20110;-62
2022/06/14 00:52:40;;;;;;;11.52;10.35;;;;;;;;;;9513776;30;20071;-62
2022/06/14 00:57:41;;;;;;;12.88;11.48;;;;;;;;;;9524763;30;20515;-62
2022/06/14 01:02:40;;;;;;;14.60;11.35;;;;;;;;;;9510492;30;20428;-61
2022/06/14 01:07:44;;;;;;;13.07;11.77;;;;;;;;;;9524280;30;20428;-62
2022/06/14 01:12:41;;;;;;;13.25;12.05;;;;;;;;;;9515939;30;20066;-61
2022/06/14 01:17:41;;;;;;;12.05;11.05;;;;;;;;;;9510184;30;20083;-61
2022/06/14 01:22:35;;;;;;;13.25;12.02;;;;;;;;;;9510055;30;20075;-61
2022/06/14 01:27:31;;;;;;;12.77;11.68;;;;;;;;;;9510767;30;20537;-61
2022/06/14 01:32:26;;;;;;;13.95;12.63;;;;;;;;;;9510249;30;20060;-61
2022/06/14 01:37:20;;;;;;;14.25;12.55;;;;;;;;;;9509678;30;20064;-61
2022/06/14 01:42:26;;;;;;;13.43;11.32;;;;;;;;;;9506905;30;20528;-61
2022/06/14 01:47:45;;;;;;;16.35;11.80;;;;;;;;;;9509935;30;20069;-61
2022/06/14 01:52:42;;;;;;;;;;;;;;;;;;9509586;30;20052;-61
2022/06/14 01:57:46;;;;;;;14.40;13.30;;;;;;;;;;9511356;30;20348;-62
2022/06/14 02:08:20;;;;;;;15.60;14.18;;;;;;;;;;9507687;30;20512;-61
2022/06/14 02:13:25;;;;;;;18.13;15.98;;;;;;;;;;9510204;30;20448;-61
2022/06/14 02:18:47;;;;;;;16.88;15.45;;;;;;;;;;9508964;30;20056;-61
2022/06/14 02:23:51;;;;;;;16.65;14.90;;;;;;;;;;9508304;30;20056;-61
2022/06/14 02:28:49;;;;;;;17.23;15.45;;;;;;;;;;9510039;30;20508;-61
2022/06/14 02:33:47;;;;;;;;;;;;;;;;;;9504113;30;20505;-62
2022/06/14 02:38:43;;;;;;;15.02;13.50;;;;;;;;;;9507049;30;19926;-62
2022/06/14 02:44:03;;;;;;;14.88;13.48;;;;;;;;;;9508584;30;20176;-62
2022/06/14 02:49:05;;;;;;;14.60;13.13;;;;;;;;;;9510025;30;20060;-61
2022/06/14 02:54:00;;;;;;;15.00;12.55;;;;;;;;;;9496300;30;20122;-61
2022/06/14 02:59:07;;;;;;;15.95;13.50;;;;;;;;;;9523473;30;20115;-61
2022/06/14 03:04:24;;;;;;;16.43;13.87;;;;;;;;;;9518134;30;20072;-61
2022/06/14 03:09:22;;;;;;;14.65;13.15;;;;;;;;;;9521644;30;20056;-61
2022/06/14 03:14:30;;;;;;;15.20;12.57;;;;;;;;;;9516501;30;20068;-61
2022/06/14 03:19:50;;;;;;;14.00;12.10;;;;;;;;;;9502735;30;20084;-61
2022/06/14 03:24:57;;;;;;;15.93;11.65;;;;;;;;;;9481519;30;20056;-61
2022/06/14 03:29:59;;;;;;;13.75;11.82;;;;;;;;;;9494083;30;20060;-61
2022/06/14 03:34:56;;;;;;;13.18;11.73;;;;;;;;;;9500623;30;20067;-61
2022/06/14 03:39:55;;;;;;;14.88;12.60;;;;;;;;;;9506549;30;20063;-61
2022/06/14 03:44:49;;;;;;;14.35;13.15;;;;;;;;;;9514213;30;20066;-61
2022/06/14 03:49:46;;;;;;;15.60;13.60;;;;;;;;;;9510774;30;20094;-63
2022/06/14 03:55:05;;;;;;;16.00;14.60;;;;;;;;;;9506422;30;20052;-62
2022/06/14 04:00:20;;;;;;;19.35;17.70;;;;;;;;;;9485897;30;20117;-60
2022/06/14 04:05:29;;;;;;;17.45;15.82;;;;;;;;;;9505854;30;20056;-60
2022/06/14 04:10:28;;;;;;;19.85;15.75;;;;;;;;;;9499908;30;20064;-62
2022/06/14 04:15:37;;;;;;;22.88;15.13;;;;;;;;;;9505304;30;20159;-60
2022/06/14 04:20:41;;;;;;;16.85;15.23;;;;;;;;;;9501976;30;20056;-60
2022/06/14 04:25:44;;;;;;;18.45;16.50;;;;;;;;;;9508823;30;20149;-62
2022/06/14 04:31:01;;;;;;;17.17;15.30;;;;;;;;;;9489748;30;20062;-60
2022/06/14 04:36:07;;;;;;;17.13;15.52;;;;;;;;;;9508783;30;20076;-60
2022/06/14 04:41:10;;;;;;;16.70;15.20;;;;;;;;;;9503447;30;20509;-62
2022/06/14 04:46:30;;;;;;;15.60;13.95;;;;;;;;;;9499801;30;20066;-61
2022/06/14 04:51:44;;;;;;;15.88;14.40;;;;;;;;;;9506179;30;20063;-61
2022/06/14 04:57:14;;;;;;;16.42;14.88;;;;;;;;;;9509634;30;20058;-62
2022/06/14 05:02:32;;;;;;;17.35;15.82;;;;;;;;;;9511930;30;20087;-63
2022/06/14 05:07:40;;;;;;;19.15;17.00;;;;;;;;;;9464042;30;20101;-63
2022/06/14 05:13:09;;;;;;;18.42;16.67;;;;;;;;;;9515023;30;20056;-60
2022/06/14 05:18:26;;;;;;;18.85;17.08;;;;;;;;;;9500863;30;20142;-62
2022/06/14 05:23:25;;;;;;;20.13;18.10;;;;;;;;;;9500766;30;20070;-62
2022/06/14 05:28:28;;;;;;;21.33;18.00;;;;;;;;;;9495265;30;20041;-62
2022/06/14 05:33:29;;;;;;;22.95;19.75;;;;;;;;;;9501514;30;20102;-60
2022/06/14 05:38:38;;;;;;;22.90;20.65;;;;;;;;;;9510266;30;20122;-60
2022/06/14 05:43:44;;;;;;;28.40;24.70;;;;;;;;;;9522127;30;20497;-61
2022/06/14 05:48:50;;;;;;;27.35;24.75;;;;;;;;;;9515348;30;20596;-60
2022/06/14 05:53:48;;;;;;;26.83;24.08;;;;;;;;;;9530100;30;20060;-61
2022/06/14 05:59:05;;;;;;;31.35;28.25;;;;;;;;;;9514887;30;20492;-63
2022/06/14 06:04:16;;;;;;;26.23;23.67;;;;;;;;;;9513229;30;20052;-60
2022/06/14 06:09:31;;;;;;;26.50;23.08;;;;;;;;;;9497290;30;20108;-60
2022/06/14 06:14:55;;;;;;;26.85;24.25;;;;;;;;;;9496102;30;20063;-60
2022/06/14 06:20:02;;;;;;;26.58;23.88;;;;;;;;;;9506055;30;20104;-60
2022/06/14 06:25:03;;;;;;;22.98;20.27;;;;;;;;;;9503537;30;20060;-60
2022/06/14 06:30:20;;;;;;;18.52;16.73;;;;;;;;;;9490476;30;20059;-60
2022/06/14 06:35:14;;;;;;;20.25;18.17;;;;;;;;;;9504279;30;20064;-60
2022/06/14 06:40:23;;;;;;;18.45;16.05;;;;;;;;;;9509190;30;20582;-60
2022/06/14 06:45:29;;;;;;;22.08;15.85;;;;;;;;;;9509079;30;20130;-60
2022/06/14 06:50:43;;;;;;;16.40;14.52;;;;;;;;;;9512232;30;20151;-61
2022/06/14 06:55:48;;;;;;;15.82;13.02;;;;;;;;;;9503160;30;20131;-61
2022/06/14 07:00:43;;;;;;;16.40;12.52;;;;;;;;;;9507362;30;20109;-60
2022/06/14 07:05:37;;;;;;;16.52;13.90;;;;;;;;;;9513388;30;20121;-60
2022/06/14 07:10:50;;;;;;;13.48;11.95;;;;;;;;;;9511088;30;20135;-59
2022/06/14 07:15:45;;;;;;;14.85;11.68;;;;;;;;;;9490067;30;20117;-60
2022/06/14 07:20:44;;;;;;;11.80;10.73;;;;;;;;;;9503073;30;20416;-60
2022/06/14 07:25:53;;;;;;;14.07;12.88;;;;;;;;;;9508930;30;20519;-60
2022/06/14 07:30:50;;;;;;;16.40;11.77;;;;;;;;;;9486205;30;20468;-60
2022/06/14 07:36:09;;;;;;;10.40;9.35;;;;;;;;;;9501854;30;20072;-60
2022/06/14 07:41:17;;;;;;;9.65;8.75;;;;;;;;;;9467452;30;20060;-60
2022/06/14 07:46:15;;;;;;;11.55;9.57;;;;;;;;;;9478507;30;20069;-61
2022/06/14 07:51:21;;;;;;;10.25;8.77;;;;;;;;;;9484825;30;20125;-65
2022/06/14 07:56:30;;;;;;;10.25;9.13;;;;;;;;;;9468099;30;20052;-63
2022/06/14 08:01:35;;;;;;;11.23;7.32;;;;;;;;;;9481877;30;20079;-64
2022/06/14 08:06:35;;;;;;;8.07;6.10;;;;;;;;;;9471664;30;20143;-64
2022/06/14 08:11:50;;;;;;;7.90;5.70;;;;;;;;;;9468965;30;20052;-65
2022/06/14 08:16:45;;;;;;;7.38;4.95;;;;;;;;;;9466991;30;20497;-65
2022/06/14 08:21:57;;;;;;;9.05;4.72;;;;;;;;;;9469904;30;20052;-64
2022/06/14 08:26:55;;;;;;;10.02;4.40;;;;;;;;;;9484665;30;20080;-64
2022/06/14 08:32:09;;;;;;;5.85;3.70;;;;;;;;;;9469089;30;20061;-64
2022/06/14 08:37:23;;;;;;;6.75;3.63;;;;;;;;;;9466917;30;20080;-64
2022/06/14 08:42:38;;;;;;;5.78;3.50;;;;;;;;;;9502624;30;20107;-64
2022/06/14 08:47:58;;;;;;;3.97;3.15;;;;;;;;;;9504744;30;20044;-64
2022/06/14 08:53:10;;;;;;;7.25;3.05;;;;;;;;;;9508466;30;20436;-63
2022/06/14 08:58:32;;;;;;;7.88;3.33;;;;;;;;;;9502763;30;20131;-62
2022/06/14 09:04:00;;;;;;;3.88;2.80;;;;;;;;;;9507362;30;20064;-63
2022/06/14 09:09:15;;;;;;;8.30;3.42;;;;;;;;;;9456204;30;20060;-63
2022/06/14 09:14:14;;;;;;;9.40;2.80;;;;;;;;;;9508658;30;20060;-63
2022/06/14 09:19:42;;;;;;;9.27;3.60;;;;;;;;;;9508529;30;20056;-63
2022/06/14 09:24:45;;;;;;;10.13;2.83;;;;;;;;;;9498987;30;20432;-63
2022/06/14 09:29:57;;;;;;;10.38;3.95;;;;;;;;;;9510506;30;20056;-63
2022/06/14 09:35:28;;;;;;;9.48;2.70;;;;;;;;;;9509750;30;20429;-64
2022/06/14 09:40:35;;;;;;;9.68;3.30;;;;;;;;;;9507626;30;20431;-63
2022/06/14 09:45:37;;;;;;;8.93;2.75;;;;;;;;;;9493437;30;20048;-62
2022/06/14 09:50:55;;;;;;;8.25;3.03;;;;;;;;;;9508591;30;20119;-64
2022/06/14 09:56:16;;;;;;;14.32;3.15;;;;;;;;;;9506789;30;20143;-63
2022/06/14 10:01:23;;;;;;;8.82;3.00;;;;;;;;;;9509063;30;20467;-63
2022/06/14 10:06:48;;;;;;;7.07;2.85;;;;;;;;;;9505576;30;20048;-63
2022/06/14 10:12:04;;;;;;;7.68;2.88;;;;;;;;;;9504948;30;20064;-68
2022/06/14 10:17:34;;;;;;;8.63;2.55;;;;;;;;;;9505627;30;20060;-63
2022/06/14 10:22:45;;;;;;;9.82;2.90;;;;;;;;;;9505506;30;20060;-65
2022/06/14 10:28:11;;;;;;;7.63;2.83;;;;;;;;;;9508388;30;20056;-65
2022/06/14 10:33:42;;;;;;;11.75;2.70;;;;;;;;;;9494442;30;20581;-64
2022/06/14 10:38:54;;;;;;;9.20;2.70;;;;;;;;;;9509761;30;20067;-63
2022/06/14 10:44:16;;;;;;;12.88;3.22;;;;;;;;;;9508467;30;20049;-68
2022/06/14 10:49:21;;;;;;;10.13;2.78;;;;;;;;;;9470777;30;20114;-72
2022/06/14 10:54:16;;;;;;;10.02;3.05;;;;;;;;;;9507045;30;20118;-72
2022/06/14 10:59:28;;;;;;;10.60;2.55;;;;;;;;;;9492244;30;20554;-71
2022/06/14 11:04:37;;;;;;;12.90;2.83;;;;;;;;;;9505066;30;20072;-73
2022/06/14 11:10:12;;;;;;;12.55;3.35;;;;;;;;;;9490875;30;20052;-73
2022/06/14 11:15:34;;;;;;;13.07;3.45;;;;;;;;;;9501470;30;20050;-72
2022/06/14 11:21:00;;;;;;;11.95;2.80;;;;;;;;;;9504525;30;20464;-72
2022/06/14 11:26:30;;;;;;;11.85;2.38;;;;;;;;;;9506461;30;20128;-72
2022/06/14 11:31:41;;;;;;;12.57;2.50;;;;;;;;;;9506540;30;20060;-70
2022/06/14 11:37:16;;;;;;;4.75;2.10;;;;;;;;;;9504904;30;20404;-72
2022/06/14 11:42:31;;;;;;;9.65;2.35;;;;;;;;;;9372912;30;21161;-71
2022/06/14 11:47:52;;;;;;;8.63;2.33;;;;;;;;;;9504746;30;20500;-73
2022/06/14 11:52:54;;;;;;;12.73;3.22;;;;;;;;;;9492227;30;20125;-71
2022/06/14 11:58:29;;;;;;;6.13;2.72;;;;;;;;;;9506767;30;20056;-71
2022/06/14 12:03:40;;;;;;;9.63;1.90;;;;;;;;;;9427332;30;20060;-71
2022/06/14 12:09:10;;;;;;;9.00;2.50;;;;;;;;;;9507615;30;20052;-71
2022/06/14 12:14:28;;;;;;;9.77;2.35;;;;;;;;;;9506383;30;20056;-71
2022/06/14 12:19:31;;;;;;;7.45;1.67;;;;;;;;;;9494569;30;20044;-71
2022/06/14 12:26:34;;;;;;;9.63;2.65;;;;;;;;;;9511276;30;20517;-71
2022/06/14 12:29:45;;;;;;;3.88;2.42;;;;;;;;;;9505175;30;20058;-71
2022/06/14 12:34:47;;;;;;;4.60;2.15;;;;;;;;;;9503967;30;20064;-75
2022/06/14 12:39:49;;;;;;;6.60;2.00;;;;;;;;;;9494944;30;20497;-75
2022/06/14 12:45:12;;;;;;;7.10;2.15;;;;;;;;;;9494457;30;20060;-76
2022/06/14 12:50:27;;;;;;;13.07;2.58;;;;;;;;;;9509979;30;20119;-76
2022/06/14 12:55:29;;;;;;;7.85;2.45;;;;;;;;;;9509589;30;20090;-77
2022/06/14 13:00:43;;;;;;;6.50;2.85;;;;;;;;;;9502744;30;20071;-79
2022/06/14 13:05:42;;;;;;;11.18;2.70;;;;;;;;;;9509190;30;20486;-77
2022/06/14 13:10:39;;;;;;;5.35;1.83;;;;;;;;;;9505789;30;20088;-76
2022/06/14 13:15:50;;;;;;;;;;;;;;;;;;9509271;30;20467;-79
2022/06/14 13:21:06;;;;;;;8.77;2.25;;;;;;;;;;9508213;30;19926;-80
2022/06/14 13:26:05;;;;;;;4.50;1.80;;;;;;;;;;9483051;30;20063;-79
2022/06/14 13:31:23;;;;;;;2.72;1.63;;;;;;;;;;9509887;30;20143;-78
2022/06/14 13:36:29;;;;;;;6.90;3.75;;;;;;;;;;9508364;30;20471;-78
2022/06/14 13:42:19;;;;;;;8.32;1.85;;;;;;;;;;9497884;30;20406;-77
2022/06/14 13:47:16;;;;;;;7.30;1.73;;;;;;;;;;9442856;30;20056;-80
2022/06/14 13:52:32;;;;;;;5.93;2.67;;;;;;;;;;9494148;30;20474;-79
2022/06/14 13:57:34;;;;;;;6.25;1.98;;;;;;;;;;9493773;30;20060;-79
2022/06/14 14:03:18;;;;;;;8.18;1.60;;;;;;;;;;9477127;30;20060;-81
2022/06/14 14:08:24;;;;;;;10.55;2.25;;;;;;;;;;9507375;30;20075;-80
2022/06/14 14:13:35;;;;;;;10.13;2.97;;;;;;;;;;9481121;30;20139;-79
2022/06/14 14:18:28;;;;;;;9.50;2.70;;;;;;;;;;9491828;30;20052;-78
2022/06/14 14:23:43;;;;;;;5.38;2.13;;;;;;;;;;9507288;30;20106;-79
2022/06/14 14:29:00;;;;;;;4.40;1.75;;;;;;;;;;9505377;30;20059;-75
2022/06/14 14:34:23;;;;;;;13.05;2.63;;;;;;;;;;9506925;30;20060;-76
2022/06/14 14:39:35;;;;;;;5.93;1.83;;;;;;;;;;9505351;30;20064;-85
2022/06/14 14:44:41;;;;;;;4.90;1.70;;;;;;;;;;9508466;30;20417;-75
2022/06/14 14:49:52;;;;;;;14.07;2.33;;;;;;;;;;9478465;30;20056;-80
2022/06/14 14:55:10;;;;;;;8.63;2.10;;;;;;;;;;9493913;30;20078;-81
2022/06/14 15:06:32;;;;;;;6.05;2.10;;;;;;;;;;9504590;30;20060;-77
2022/06/14 15:11:29;;;;;;;10.70;2.42;;;;;;;;;;9501948;30;20048;-80
2022/06/14 15:16:34;;;;;;;5.50;2.75;;;;;;;;;;9501189;30;20044;-81
2022/06/14 15:21:36;;;;;;;;;;;;;;;;;;9487749;30;20059;-79
2022/06/14 15:26:53;;;;;;;5.20;2.47;;;;;;;;;;9501107;30;19926;-79
2022/06/14 15:32:09;;;;;;;11.30;3.00;;;;;;;;;;9504007;30;20059;-79
2022/06/14 15:37:23;;;;;;;5.22;2.55;;;;;;;;;;9507847;30;20056;-79
2022/06/14 15:42:22;;;;;;;7.05;2.70;;;;;;;;;;9499545;30;20143;-83
2022/06/14 15:47:16;;;;;;;6.10;2.83;;;;;;;;;;9510543;30;20063;-80
2022/06/14 15:52:23;;;;;;;9.25;2.60;;;;;;;;;;9507181;30;20063;-82
2022/06/14 15:57:23;;;;;;;4.30;2.10;;;;;;;;;;9497651;30;20479;-81
2022/06/14 16:02:31;;;;;;;8.85;2.42;;;;;;;;;;9503988;30;20055;-80
2022/06/14 16:07:36;;;;;;;10.80;2.58;;;;;;;;;;9495642;30;20143;-80
2022/06/14 16:12:37;;;;;;;9.63;2.45;;;;;;;;;;9502180;30;20511;-80
2022/06/14 16:17:43;;;;;;;6.80;2.95;;;;;;;;;;9501694;30;20059;-80
2022/06/14 16:22:37;;;;;;;4.25;2.50;;;;;;;;;;9504267;30;20052;-79
2022/06/14 16:27:52;;;;;;;6.63;2.72;;;;;;;;;;9504143;30;20059;-80
2022/06/14 16:32:57;;;;;;;11.13;2.97;;;;;;;;;;9504830;30;20060;-80
2022/06/14 16:37:56;;;;;;;11.60;2.80;;;;;;;;;;9505100;30;20056;-80
2022/06/14 16:43:08;;;;;;;7.55;2.55;;;;;;;;;;9489080;30;20056;-81
2022/06/14 16:48:14;;;;;;;5.28;2.70;;;;;;;;;;9510466;30;20424;-80
2022/06/14 16:53:39;;;;;;;5.57;2.63;;;;;;;;;;9500858;30;20080;-81
2022/06/14 16:58:39;;;;;;;7.28;3.30;;;;;;;;;;9504363;30;20052;-77
2022/06/14 17:03:45;;;;;;;4.45;2.90;;;;;;;;;;9504363;30;20087;-80
2022/06/14 17:09:17;;;;;;;9.90;3.55;;;;;;;;;;9509196;30;20052;-80
2022/06/14 17:14:18;;;;;;;9.57;2.95;;;;;;;;;;9455267;30;20060;-83
2022/06/14 17:19:23;;;;;;;6.68;2.45;;;;;;;;;;9507569;30;20054;-82
2022/06/14 17:24:39;;;;;;;2.60;2.17;;;;;;;;;;9496378;30;20087;-82
2022/06/14 17:34:50;;;;;;;7.63;2.40;;;;;;;;;;9509954;30;20442;-82
2022/06/14 17:40:04;;;;;;;8.45;2.38;;;;;;;;;;9492948;30;20139;-82
2022/06/14 17:45:22;;;;;;;3.72;2.35;;;;;;;;;;9509608;30;20512;-82
2022/06/14 17:51:04;;;;;;;7.35;2.80;;;;;;;;;;9509017;30;20059;-74
2022/06/14 17:56:11;;;;;;;5.25;2.13;;;;;;;;;;9475582;30;20566;-73
2022/06/14 18:01:17;;;;;;;6.82;3.03;;;;;;;;;;9510236;30;20064;-74
2022/06/14 18:06:15;;;;;;;6.55;3.08;;;;;;;;;;9508442;30;20370;-74
2022/06/14 18:11:09;;;;;;;8.90;2.53;;;;;;;;;;9507274;30;20052;-73
2022/06/14 18:16:06;;;;;;;14.27;3.22;;;;;;;;;;9507957;30;21527;-73
2022/06/14 18:21:11;;;;;;;3.90;2.47;;;;;;;;;;9491122;30;20064;-73
2022/06/14 18:26:25;;;;;;;9.50;3.25;;;;;;;;;;9505728;30;20523;-73
2022/06/14 18:31:33;;;;;;;5.57;2.90;;;;;;;;;;9523378;30;20056;-74
2022/06/14 18:37:02;;;;;;;7.25;2.63;;;;;;;;;;9499912;30;20496;-74
2022/06/14 18:42:37;;;;;;;12.03;2.77;;;;;;;;;;9507160;30;20497;-74
2022/06/14 18:47:56;;;;;;;4.75;2.78;;;;;;;;;;9478308;30;20055;-73
2022/06/14 18:53:03;;;;;;;4.30;2.53;;;;;;;;;;9505603;30;20052;-72
2022/06/14 18:58:02;;;;;;;4.38;2.60;;;;;;;;;;9507102;30;20076;-72
2022/06/14 19:03:10;;;;;;;9.68;2.78;;;;;;;;;;9505806;30;20051;-70
2022/06/14 19:08:17;;;;;;;10.48;2.67;;;;;;;;;;9503929;30;20108;-70
2022/06/14 19:13:36;;;;;;;9.07;2.70;;;;;;;;;;9508664;30;20083;-71
2022/06/14 19:18:39;;;;;;;8.40;2.90;;;;;;;;;;9516804;30;20056;-71
2022/06/14 19:23:41;;;;;;;4.20;2.63;;;;;;;;;;9507315;30;20127;-70
2022/06/14 19:28:50;;;;;;;3.80;2.50;;;;;;;;;;9505434;30;20135;-71
2022/06/14 19:33:51;;;;;;;9.30;3.22;;;;;;;;;;9500820;30;20098;-75
2022/06/14 19:38:46;;;;;;;12.65;2.88;;;;;;;;;;9506246;30;20092;-73
2022/06/14 19:43:41;;;;;;;7.30;2.60;;;;;;;;;;9499449;30;20490;-73
2022/06/14 19:53:53;;;;;;;10.02;3.03;;;;;;;;;;9503957;30;20456;-72
2022/06/14 19:58:51;;;;;;;3.42;2.63;;;;;;;;;;9507957;30;20056;-71
2022/06/14 20:03:54;;;;;;;;;;;;;;;;;;9507674;30;20067;-72
2022/06/14 20:08:47;;;;;;;5.53;2.83;;;;;;;;;;9496415;30;19929;-74
2022/06/14 20:13:41;;;;;;;6.00;2.60;;;;;;;;;;9500733;30;20052;-75
2022/06/14 20:19:01;;;;;;;5.20;3.78;;;;;;;;;;9508225;30;20056;-79
2022/06/14 20:23:56;;;;;;;8.68;2.90;;;;;;;;;;9505254;30;20135;-79
2022/06/14 20:28:50;;;;;;;3.45;2.95;;;;;;;;;;9501299;30;20489;-74
2022/06/14 20:34:02;;;;;;;3.67;2.72;;;;;;;;;;9503599;30;20102;-77
2022/06/14 20:38:55;;;;;;;7.32;3.55;;;;;;;;;;9501538;30;20072;-77
2022/06/14 20:43:50;;;;;;;6.47;3.05;;;;;;;;;;9487484;30;20137;-77
2022/06/14 20:48:46;;;;;;;11.63;3.28;;;;;;;;;;9507394;30;20135;-76
2022/06/14 20:53:40;;;;;;;7.35;2.90;;;;;;;;;;9504330;30;20152;-76
2022/06/14 20:58:35;;;;;;;3.30;2.75;;;;;;;;;;9514199;30;20060;-75
2022/06/14 21:03:28;;;;;;;5.45;2.55;;;;;;;;;;9510980;30;20135;-78
2022/06/14 21:08:24;;;;;;;4.60;3.00;;;;;;;;;;9511406;30;20048;-77
2022/06/14 21:13:18;;;;;;;7.95;2.60;;;;;;;;;;9512191;30;20059;-78
2022/06/14 21:18:11;;;;;;;5.50;3.08;;;;;;;;;;9508751;30;21151;-80
2022/06/14 21:23:06;;;;;;;5.03;2.65;;;;;;;;;;9510277;30;20139;-81
2022/06/14 21:28:00;;;;;;;6.95;2.70;;;;;;;;;;9511413;30;20052;-74
2022/06/14 21:32:56;;;;;;;6.13;3.28;;;;;;;;;;9507382;30;20064;-79
2022/06/14 21:38:07;;;;;;;6.70;2.78;;;;;;;;;;9517946;30;20064;-75
2022/06/14 21:43:04;;;;;;;5.55;2.67;;;;;;;;;;9519471;30;20109;-78
2022/06/14 21:47:59;;;;;;;3.38;2.75;;;;;;;;;;9508675;30;20060;-77
2022/06/14 21:52:56;;;;;;;10.93;3.30;;;;;;;;;;9523413;30;20064;-77
2022/06/14 21:57:52;;;;;;;5.68;2.60;;;;;;;;;;9527927;30;20067;-77
2022/06/14 22:02:50;;;;;;;7.55;3.20;;;;;;;;;;9498466;30;20052;-77
2022/06/14 22:07:45;;;;;;;11.65;2.97;;;;;;;;;;9506295;30;20072;-77
2022/06/14 22:12:39;;;;;;;5.63;2.95;;;;;;;;;;9509372;30;20060;-77
2022/06/14 22:17:33;;;;;;;7.07;2.88;;;;;;;;;;9524092;30;20099;-77
2022/06/14 22:22:28;;;;;;;3.97;3.08;;;;;;;;;;9523286;30;20069;-78
2022/06/14 22:27:27;;;;;;;6.60;2.50;;;;;;;;;;9510863;30;20135;-78
2022/06/14 22:32:21;;;;;;;6.55;3.53;;;;;;;;;;9505318;30;20048;-78
2022/06/14 22:37:14;;;;;;;5.75;3.00;;;;;;;;;;9520030;30;20064;-78
2022/06/14 22:42:09;;;;;;;5.32;3.10;;;;;;;;;;9484654;30;20136;-78
2022/06/14 22:47:03;;;;;;;7.45;2.83;;;;;;;;;;9479165;30;20084;-77
2022/06/14 22:52:00;;;;;;;4.82;2.90;;;;;;;;;;9488682;30;20072;-76
2022/06/14 22:56:56;;;;;;;4.35;3.15;;;;;;;;;;9505034;30;20048;-77
2022/06/14 23:01:52;;;;;;;6.22;3.35;;;;;;;;;;9478155;30;20131;-76
2022/06/14 23:06:47;;;;;;;4.55;3.28;;;;;;;;;;9472154;30;20064;-76
2022/06/14 23:11:43;;;;;;;5.30;3.90;;;;;;;;;;9471619;30;20591;-76
2022/06/14 23:16:37;;;;;;;6.40;3.70;;;;;;;;;;9472111;30;20064;-77
2022/06/14 23:21:33;;;;;;;4.93;3.88;;;;;;;;;;9474095;30;20060;-77
2022/06/14 23:26:27;;;;;;;6.53;3.65;;;;;;;;;;9476136;30;20048;-77
2022/06/14 23:31:21;;;;;;;6.65;3.38;;;;;;;;;;9471964;30;20053;-77
2022/06/14 23:36:15;;;;;;;5.60;3.40;;;;;;;;;;9487220;30;20083;-70
2022/06/14 23:41:09;;;;;;;6.93;3.60;;;;;;;;;;9517969;30;20125;-70
2022/06/14 23:46:07;;;;;;;10.70;3.53;;;;;;;;;;9507136;30;20110;-70
2022/06/14 23:51:01;;;;;;;11.32;4.25;;;;;;;;;;9505479;30;20075;-70
2022/06/14 23:55:55;;;;;;;5.38;3.50;;;;;;;;;;9503134;30;20142;-70
